Time;durP1;ratioP1;P1;durP2;ratioP2;P2;SDS_P1;SDS_P2;PMS_P1;PMS_P2;Temp;Humidity;BMP_temperature;BMP_pressure;BME280_temperature;BME280_humidity;BME280_pressure;Samples;Min_cycle;Max_cycle;Signal;HPM_P1;HPM_P2
2023/06/10 00:02:12;;;;;;;;;;;;;;;;;;2202322;59;2191;-18
2023/06/10 00:04:43;;;;;;;;;;;;;;;;;;2203298;58;1599;-18
2023/06/10 00:07:13;;;;;;;;;;;;;;;;;;2202191;66;1994;-17
2023/06/10 00:09:43;;;;;;;;;;;;;;;;;;2202273;59;2048;-18
2023/06/10 00:12:14;;;;;;;;;;;;;;;;;;2199378;67;1818;-18
2023/06/10 00:14:45;;;;;;;;;;;;;;;;;;2202807;66;2038;-18
2023/06/10 00:17:15;;;;;;;;;;;;;;;;;;2202530;59;1735;-17
2023/06/10 00:19:46;;;;;;;;;;;;;;;;;;2202749;59;2320;-18
2023/06/10 00:22:17;;;;;;;;;;;;;;;;;;2202456;64;1473;-18
2023/06/10 00:24:47;;;;;;;;;;;;;;;;;;2201702;66;1752;-17
2023/06/10 00:27:17;;;;;;;;;;;;;;;;;;2202980;66;1839;-18
2023/06/10 00:29:48;;;;;;;;;;;;;;;;;;2203590;66;2422;-18
2023/06/10 00:32:18;;;;;;;;;;;;;;;;;;2202819;59;2420;-17
2023/06/10 00:34:48;;;;;;;;;;;;;;;;;;2202474;66;1986;-18
2023/06/10 00:37:18;;;;;;;;;;;;;;;;;;2202239;59;1718;-18
2023/06/10 00:39:49;;;;;;;;;;;;;;;;;;2202639;66;1763;-18
2023/06/10 00:42:19;;;;;;;;;;;;;;;;;;2215659;66;2456;-17
2023/06/10 00:44:54;;;;;;;;;;;;;;;;;;2200335;66;1978;-18
2023/06/10 00:47:25;;;;;;;;;;;;;;;;;;2202197;59;2825;-18
2023/06/10 00:49:55;;;;;;;;;;;;;;;;;;2201588;59;2644;-18
2023/06/10 00:52:27;;;;;;;;;;;;;;;;;;2202658;59;2110;-17
2023/06/10 00:54:59;;;;;;;;;;;;;;;;;;2203391;66;1935;-18
2023/06/10 00:57:29;;;;;;;;;;;;;;;;;;2202718;59;2068;-18
2023/06/10 00:59:59;;;;;;;;;;;;;;;;;;2203036;59;1847;-18
2023/06/10 01:02:33;;;;;;;;;;;;;;;;;;2202318;59;1558;-18
2023/06/10 01:05:03;;;;;;;;;;;;;;;;;;2202797;66;1746;-18
2023/06/10 01:07:38;;;;;;;;;;;;;;;;;;2202022;59;2719;-17
2023/06/10 01:10:15;;;;;;;;;;;;;;;;;;2202451;66;2434;-18
2023/06/10 01:12:50;;;;;;;;;;;;;;;;;;2202569;66;1989;-18
2023/06/10 01:15:21;;;;;;;;;;;;;;;;;;2201766;66;2088;-18
2023/06/10 01:17:57;;;;;;;;;;;;;;;;;;2202574;66;1463;-18
2023/06/10 01:20:28;;;;;;;;;;;;;;;;;;2202920;66;1986;-18
2023/06/10 01:22:59;;;;;;;;;;;;;;;;;;2202816;66;1537;-18
2023/06/10 01:25:32;;;;;;;;;;;;;;;;;;2202392;66;1831;-18
2023/06/10 01:28:24;;;;;;;;;;;;;;;;;;2202480;66;2307;-17
2023/06/10 01:30:55;;;;;;;;;;;;;;;;;;2202547;59;1719;-18
2023/06/10 01:33:34;;;;;;;;;;;;;;;;;;2202141;66;1874;-17
2023/06/10 01:36:05;;;;;;;;;;;;;;;;;;2202868;59;1996;-18
2023/06/10 01:38:39;;;;;;;;;;;;;;;;;;2202125;66;1729;-18
2023/06/10 01:41:11;;;;;;;;;;;;;;;;;;2201837;66;1911;-18
2023/06/10 01:43:43;;;;;;;;;;;;;;;;;;2202024;60;2090;-17
2023/06/10 01:46:14;;;;;;;;;;;;;;;;;;2202188;66;2480;-18
2023/06/10 01:48:44;;;;;;;;;;;;;;;;;;2202521;59;2513;-18
2023/06/10 01:51:15;;;;;;;;;;;;;;;;;;2201373;59;2698;-18
2023/06/10 01:53:45;;;;;;;;;;;;;;;;;;2200984;60;2213;-18
2023/06/10 01:56:18;;;;;;;;;;;;;;;;;;2201763;66;1933;-18
2023/06/10 01:58:49;;;;;;;;;;;;;;;;;;2201489;59;2419;-18
2023/06/10 02:01:19;;;;;;;;;;;;;;;;;;2201050;59;2269;-18
2023/06/10 02:03:49;;;;;;;;;;;;;;;;;;2201993;66;1806;-17
2023/06/10 02:06:23;;;;;;;;;;;;;;;;;;2201664;66;1959;-17
2023/06/10 02:08:53;;;;;;;;;;;;;;;;;;2202637;66;1864;-18
2023/06/10 02:11:23;;;;;;;;;;;;;;;;;;2202624;59;1529;-18
2023/06/10 02:13:54;;;;;;;;;;;;;;;;;;2201748;66;2085;-18
2023/06/10 02:16:26;;;;;;;;;;;;;;;;;;2203845;66;1913;-18
2023/06/10 02:18:56;;;;;;;;;;;;;;;;;;2202611;66;1931;-17
2023/06/10 02:21:26;;;;;;;;;;;;;;;;;;2202758;66;1789;-18
2023/06/10 02:23:57;;;;;;;;;;;;;;;;;;2202343;66;1203;-18
2023/06/10 02:26:27;;;;;;;;;;;;;;;;;;2201462;66;1408;-18
2023/06/10 02:28:57;;;;;;;;;;;;;;;;;;2202906;66;1562;-18
2023/06/10 02:31:28;;;;;;;;;;;;;;;;;;2202611;59;1324;-17
2023/06/10 02:33:59;;;;;;;;;;;;;;;;;;2202367;59;1621;-18
2023/06/10 02:36:29;;;;;;;;;;;;;;;;;;2202427;59;1936;-17
2023/06/10 02:38:59;;;;;;;;;;;;;;;;;;2202723;66;1324;-18
2023/06/10 02:41:30;;;;;;;;;;;;;;;;;;2202300;66;1387;-18
2023/06/10 02:44:00;;;;;;;;;;;;;;;;;;2202213;66;1705;-18
2023/06/10 02:46:30;;;;;;;;;;;;;;;;;;2202299;59;2214;-18
2023/06/10 02:49:01;;;;;;;;;;;;;;;;;;2202730;66;2798;-18
2023/06/10 02:51:31;;;;;;;;;;;;;;;;;;2200897;59;2309;-18
2023/06/10 02:54:02;;;;;;;;;;;;;;;;;;2201888;59;2286;-18
2023/06/10 02:56:33;;;;;;;;;;;;;;;;;;2201655;66;2012;-18
2023/06/10 02:59:03;;;;;;;;;;;;;;;;;;2198902;59;2109;-18
2023/06/10 03:01:36;;;;;;;;;;;;;;;;;;2212324;53;1880;-23
2023/06/10 03:04:09;;;;;;;;;;;;;;;;;;2210903;67;1516;-22
2023/06/10 03:06:40;;;;;;;;;;;;;;;;;;2213103;59;1837;-22
2023/06/10 03:09:11;;;;;;;;;;;;;;;;;;2213048;59;1763;-23
2023/06/10 03:11:41;;;;;;;;;;;;;;;;;;2211742;59;2486;-23
2023/06/10 03:14:11;;;;;;;;;;;;;;;;;;2211580;66;3618;-23
2023/06/10 03:16:42;;;;;;;;;;;;;;;;;;2212446;59;2370;-23
2023/06/10 03:19:12;;;;;;;;;;;;;;;;;;2211599;67;1884;-23
2023/06/10 03:21:45;;;;;;;;;;;;;;;;;;2208925;67;3102;-23
2023/06/10 03:24:16;;;;;;;;;;;;;;;;;;2212088;59;2375;-23
2023/06/10 03:26:46;;;;;;;;;;;;;;;;;;2211996;66;2002;-23
2023/06/10 03:29:16;;;;;;;;;;;;;;;;;;2211238;67;2089;-23
2023/06/10 03:31:47;;;;;;;;;;;;;;;;;;2211873;59;2749;-23
2023/06/10 03:34:17;;;;;;;;;;;;;;;;;;2211473;66;1933;-23
2023/06/10 03:36:47;;;;;;;;;;;;;;;;;;2208576;59;2396;-23
2023/06/10 03:39:17;;;;;;;;;;;;;;;;;;2211847;59;2396;-23
2023/06/10 03:41:47;;;;;;;;;;;;;;;;;;2209261;59;2291;-23
2023/06/10 03:44:18;;;;;;;;;;;;;;;;;;2212008;59;2597;-23
2023/06/10 03:46:48;;;;;;;;;;;;;;;;;;2212799;59;2070;-23
2023/06/10 03:49:18;;;;;;;;;;;;;;;;;;2214687;59;2089;-23
2023/06/10 03:51:48;;;;;;;;;;;;;;;;;;2214392;59;2308;-23
2023/06/10 03:54:18;;;;;;;;;;;;;;;;;;2211272;66;3250;-23
2023/06/10 03:56:49;;;;;;;;;;;;;;;;;;2212187;59;1833;-23
2023/06/10 03:59:22;;;;;;;;;;;;;;;;;;2212154;66;2753;-23
2023/06/10 04:01:52;;;;;;;;;;;;;;;;;;2212598;59;1971;-23
2023/06/10 04:04:23;;;;;;;;;;;;;;;;;;2208555;66;1916;-23
2023/06/10 04:06:53;;;;;;;;;;;;;;;;;;2210826;59;2479;-23
2023/06/10 04:09:23;;;;;;;;;;;;;;;;;;2210206;58;2468;-23
2023/06/10 04:11:53;;;;;;;;;;;;;;;;;;2212457;59;1840;-23
2023/06/10 04:14:24;;;;;;;;;;;;;;;;;;2212645;66;2057;-23
2023/06/10 04:16:54;;;;;;;;;;;;;;;;;;2210265;59;3122;-23
2023/06/10 04:19:24;;;;;;;;;;;;;;;;;;2215231;59;1960;-23
2023/06/10 04:21:54;;;;;;;;;;;;;;;;;;2211802;59;1769;-23
2023/06/10 04:24:28;;;;;;;;;;;;;;;;;;2212395;66;2109;-23
2023/06/10 04:27:01;;;;;;;;;;;;;;;;;;2212482;59;1966;-23
2023/06/10 04:29:31;;;;;;;;;;;;;;;;;;2211830;66;1987;-23
2023/06/10 04:32:01;;;;;;;;;;;;;;;;;;2207752;59;1977;-23
2023/06/10 04:34:33;;;;;;;;;;;;;;;;;;2211636;66;1999;-23
2023/06/10 04:37:03;;;;;;;;;;;;;;;;;;2212144;59;2413;-23
2023/06/10 04:39:33;;;;;;;;;;;;;;;;;;2212018;66;2128;-23
2023/06/10 04:42:05;;;;;;;;;;;;;;;;;;2209432;67;2160;-23
2023/06/10 04:44:35;;;;;;;;;;;;;;;;;;2211854;66;2008;-23
2023/06/10 04:47:07;;;;;;;;;;;;;;;;;;2212082;59;2357;-23
2023/06/10 04:49:37;;;;;;;;;;;;;;;;;;2209091;59;2698;-23
2023/06/10 04:52:08;;;;;;;;;;;;;;;;;;2211955;59;2643;-23
2023/06/10 04:54:38;;;;;;;;;;;;;;;;;;2209857;66;3240;-23
2023/06/10 04:57:11;;;;;;;;;;;;;;;;;;2211479;66;2982;-23
2023/06/10 04:59:41;;;;;;;;;;;;;;;;;;2212182;58;2251;-23
2023/06/10 05:02:11;;;;;;;;;;;;;;;;;;2211384;59;2423;-23
2023/06/10 05:04:42;;;;;;;;;;;;;;;;;;2211687;59;1879;-23
2023/06/10 05:07:12;;;;;;;;;;;;;;;;;;2210817;66;1791;-23
2023/06/10 05:09:42;;;;;;;;;;;;;;;;;;2211386;66;2849;-23
2023/06/10 05:12:12;;;;;;;;;;;;;;;;;;2211842;66;2440;-23
2023/06/10 05:14:44;;;;;;;;;;;;;;;;;;2208339;66;2022;-23
2023/06/10 05:17:14;;;;;;;;;;;;;;;;;;2209730;59;2489;-23
2023/06/10 05:19:45;;;;;;;;;;;;;;;;;;2211717;66;2092;-23
2023/06/10 05:22:18;;;;;;;;;;;;;;;;;;2211333;67;1751;-23
2023/06/10 05:24:51;;;;;;;;;;;;;;;;;;2211477;59;2457;-23
2023/06/10 05:27:22;;;;;;;;;;;;;;;;;;2211775;59;1821;-23
2023/06/10 05:29:52;;;;;;;;;;;;;;;;;;2212163;59;1953;-23
2023/06/10 05:32:22;;;;;;;;;;;;;;;;;;2208929;59;1879;-23
2023/06/10 05:34:52;;;;;;;;;;;;;;;;;;2212153;66;1968;-23
2023/06/10 05:37:22;;;;;;;;;;;;;;;;;;2212550;66;1926;-23
2023/06/10 05:39:53;;;;;;;;;;;;;;;;;;2208561;66;1911;-23
2023/06/10 05:42:23;;;;;;;;;;;;;;;;;;2212384;66;2196;-23
2023/06/10 05:44:53;;;;;;;;;;;;;;;;;;2213366;59;2095;-23
2023/06/10 05:47:23;;;;;;;;;;;;;;;;;;2211800;59;2479;-23
2023/06/10 05:49:53;;;;;;;;;;;;;;;;;;2211765;59;1971;-23
2023/06/10 05:52:24;;;;;;;;;;;;;;;;;;2208740;59;2636;-23
2023/06/10 05:54:54;;;;;;;;;;;;;;;;;;2210923;59;3005;-23
2023/06/10 05:57:24;;;;;;;;;;;;;;;;;;2210834;59;3322;-23
2023/06/10 05:59:55;;;;;;;;;;;;;;;;;;2211956;59;2361;-23
2023/06/10 06:02:25;;;;;;;;;;;;;;;;;;2211617;59;2455;-23
2023/06/10 06:04:55;;;;;;;;;;;;;;;;;;2211630;66;1847;-23
2023/06/10 06:07:26;;;;;;;;;;;;;;;;;;2207678;59;2571;-23
2023/06/10 06:09:56;;;;;;;;;;;;;;;;;;2211922;67;2615;-23
2023/06/10 06:12:26;;;;;;;;;;;;;;;;;;2214414;66;2090;-24
2023/06/10 06:14:56;;;;;;;;;;;;;;;;;;2212491;66;2292;-23
2023/06/10 06:17:27;;;;;;;;;;;;;;;;;;2211919;66;2004;-24
2023/06/10 06:19:57;;;;;;;;;;;;;;;;;;2207793;66;1771;-23
2023/06/10 06:22:27;;;;;;;;;;;;;;;;;;2207938;59;2455;-23
2023/06/10 06:24:57;;;;;;;;;;;;;;;;;;2211375;59;2698;-23
2023/06/10 06:27:27;;;;;;;;;;;;;;;;;;2209552;67;2434;-23
2023/06/10 06:29:58;;;;;;;;;;;;;;;;;;2211023;59;2965;-23
2023/06/10 06:32:28;;;;;;;;;;;;;;;;;;2210735;59;2529;-24
2023/06/10 06:34:58;;;;;;;;;;;;;;;;;;2211348;66;2026;-23
2023/06/10 06:37:31;;;;;;;;;;;;;;;;;;2209117;59;2155;-24
2023/06/10 06:40:03;;;;;;;;;;;;;;;;;;2208514;66;2141;-23
2023/06/10 06:42:33;;;;;;;;;;;;;;;;;;2209247;67;2115;-23
2023/06/10 06:45:04;;;;;;;;;;;;;;;;;;2207897;66;2318;-24
2023/06/10 06:47:34;;;;;;;;;;;;;;;;;;2206544;59;2467;-23
2023/06/10 06:50:11;;;;;;;;;;;;;;;;;;2209831;59;2038;-23
2023/06/10 06:52:41;;;;;;;;;;;;;;;;;;2212171;59;1731;-23
2023/06/10 06:55:11;;;;;;;;;;;;;;;;;;2207309;59;2584;-24
2023/06/10 06:57:41;;;;;;;;;;;;;;;;;;2211474;59;3382;-23
2023/06/10 07:00:12;;;;;;;;;;;;;;;;;;2208869;59;2383;-24
2023/06/10 07:02:45;;;;;;;;;;;;;;;;;;2207731;59;2720;-24
2023/06/10 07:05:15;;;;;;;;;;;;;;;;;;2211723;67;2603;-24
2023/06/10 07:07:46;;;;;;;;;;;;;;;;;;2206938;67;3001;-23
2023/06/10 07:10:16;;;;;;;;;;;;;;;;;;2211828;66;2358;-24
2023/06/10 07:12:47;;;;;;;;;;;;;;;;;;2212885;66;2444;-24
2023/06/10 07:15:17;;;;;;;;;;;;;;;;;;2212379;66;2075;-24
2023/06/10 07:17:47;;;;;;;;;;;;;;;;;;2210011;66;2860;-24
2023/06/10 07:20:18;;;;;;;;;;;;;;;;;;2211779;66;2350;-24
2023/06/10 07:22:48;;;;;;;;;;;;;;;;;;2209096;66;2023;-24
2023/06/10 07:25:18;;;;;;;;;;;;;;;;;;2211732;66;2673;-24
2023/06/10 07:27:49;;;;;;;;;;;;;;;;;;2211203;59;2275;-24
2023/06/10 07:30:19;;;;;;;;;;;;;;;;;;2211477;59;1998;-24
2023/06/10 07:32:51;;;;;;;;;;;;;;;;;;2207574;66;2072;-24
2023/06/10 07:35:21;;;;;;;;;;;;;;;;;;2211066;59;2115;-24
2023/06/10 07:37:51;;;;;;;;;;;;;;;;;;2206206;59;1887;-24
2023/06/10 07:40:21;;;;;;;;;;;;;;;;;;2210896;59;2506;-22
2023/06/10 07:42:52;;;;;;;;;;;;;;;;;;2213046;59;2672;-22
2023/06/10 07:45:23;;;;;;;;;;;;;;;;;;2208635;59;1764;-22
2023/06/10 07:47:56;;;;;;;;;;;;;;;;;;2212640;66;2806;-22
2023/06/10 07:50:26;;;;;;;;;;;;;;;;;;2212283;59;2562;-22
2023/06/10 07:52:56;;;;;;;;;;;;;;;;;;2214700;59;1929;-22
2023/06/10 07:55:26;;;;;;;;;;;;;;;;;;2214953;59;2723;-22
2023/06/10 07:57:57;;;;;;;;;;;;;;;;;;2211874;59;2263;-22
2023/06/10 08:00:27;;;;;;;;;;;;;;;;;;2208410;59;1848;-22
2023/06/10 08:02:57;;;;;;;;;;;;;;;;;;2211502;59;2137;-22
2023/06/10 08:05:27;;;;;;;;;;;;;;;;;;2212155;59;2045;-22
2023/06/10 08:07:58;;;;;;;;;;;;;;;;;;2212867;66;1794;-22
2023/06/10 08:10:31;;;;;;;;;;;;;;;;;;2212791;59;2110;-22
2023/06/10 08:13:01;;;;;;;;;;;;;;;;;;2212815;66;1635;-22
2023/06/10 08:15:31;;;;;;;;;;;;;;;;;;2211869;59;2268;-22
2023/06/10 08:18:02;;;;;;;;;;;;;;;;;;2212777;66;2013;-22
2023/06/10 08:20:32;;;;;;;;;;;;;;;;;;2208386;59;2322;-22
2023/06/10 08:23:02;;;;;;;;;;;;;;;;;;2212157;66;1875;-22
2023/06/10 08:25:32;;;;;;;;;;;;;;;;;;2212741;59;2066;-22
2023/06/10 08:28:03;;;;;;;;;;;;;;;;;;2211486;59;2839;-22
2023/06/10 08:30:33;;;;;;;;;;;;;;;;;;2205606;59;2718;-22
2023/06/10 08:33:03;;;;;;;;;;;;;;;;;;2211639;59;1770;-22
2023/06/10 08:35:33;;;;;;;;;;;;;;;;;;2211827;59;1937;-22
2023/06/10 08:38:03;;;;;;;;;;;;;;;;;;2212385;66;2443;-22
2023/06/10 08:40:34;;;;;;;;;;;;;;;;;;2211786;66;1718;-22
2023/06/10 08:43:06;;;;;;;;;;;;;;;;;;2209110;67;1940;-22
2023/06/10 08:45:37;;;;;;;;;;;;;;;;;;2212352;66;2375;-22
2023/06/10 08:48:08;;;;;;;;;;;;;;;;;;2211623;59;2566;-22
2023/06/10 08:50:40;;;;;;;;;;;;;;;;;;2211861;59;2016;-22
2023/06/10 08:53:13;;;;;;;;;;;;;;;;;;2212063;66;1721;-23
2023/06/10 08:55:46;;;;;;;;;;;;;;;;;;2212487;66;2171;-23
2023/06/10 08:58:17;;;;;;;;;;;;;;;;;;2212000;59;2117;-23
2023/06/10 09:00:47;;;;;;;;;;;;;;;;;;2212299;59;1973;-23
2023/06/10 09:03:17;;;;;;;;;;;;;;;;;;2211944;59;2116;-23
2023/06/10 09:05:51;;;;;;;;;;;;;;;;;;2211326;59;2596;-22
2023/06/10 09:08:21;;;;;;;;;;;;;;;;;;2211616;59;1649;-22
2023/06/10 09:10:51;;;;;;;;;;;;;;;;;;2208695;66;2174;-22
2023/06/10 09:13:21;;;;;;;;;;;;;;;;;;2211873;59;2418;-23
2023/06/10 09:15:52;;;;;;;;;;;;;;;;;;2211533;59;2128;-22
2023/06/10 09:18:22;;;;;;;;;;;;;;;;;;2211980;59;2023;-22
2023/06/10 09:20:53;;;;;;;;;;;;;;;;;;2208771;59;2151;-22
2023/06/10 09:23:23;;;;;;;;;;;;;;;;;;2207941;59;2444;-23
2023/06/10 09:26:00;;;;;;;;;;;;;;;;;;2208949;59;2189;-22
2023/06/10 09:28:30;;;;;;;;;;;;;;;;;;2211253;59;2246;-22
2023/06/10 09:31:05;;;;;;;;;;;;;;;;;;2210797;59;3252;-22
2023/06/10 09:33:41;;;;;;;;;;;;;;;;;;2208199;59;3375;-22
2023/06/10 09:36:20;;;;;;;;;;;;;;;;;;2211211;60;2028;-22
2023/06/10 09:38:51;;;;;;;;;;;;;;;;;;2211243;59;2291;-23
2023/06/10 09:41:21;;;;;;;;;;;;;;;;;;2211004;59;2396;-23
2023/06/10 09:43:51;;;;;;;;;;;;;;;;;;2211120;59;2699;-22
2023/06/10 09:46:22;;;;;;;;;;;;;;;;;;2211266;59;2451;-22
2023/06/10 09:48:52;;;;;;;;;;;;;;;;;;2208479;59;2036;-23
2023/06/10 09:51:22;;;;;;;;;;;;;;;;;;2212887;59;2326;-23
2023/06/10 09:53:53;;;;;;;;;;;;;;;;;;2211252;59;2227;-23
2023/06/10 09:56:34;;;;;;;;;;;;;;;;;;2211540;66;2003;-23
2023/06/10 09:59:06;;;;;;;;;;;;;;;;;;2211122;59;1993;-23
2023/06/10 10:01:36;;;;;;;;;;;;;;;;;;2211711;59;2871;-22
2023/06/10 10:04:06;;;;;;;;;;;;;;;;;;2209074;67;1830;-22
2023/06/10 10:06:37;;;;;;;;;;;;;;;;;;2211122;59;2082;-23
2023/06/10 10:09:08;;;;;;;;;;;;;;;;;;2211753;66;2408;-22
2023/06/10 10:11:38;;;;;;;;;;;;;;;;;;2210321;59;2740;-23
2023/06/10 10:14:08;;;;;;;;;;;;;;;;;;2211396;66;1934;-22
2023/06/10 10:16:40;;;;;;;;;;;;;;;;;;2210518;59;2154;-23
2023/06/10 10:19:15;;;;;;;;;;;;;;;;;;2211127;66;2858;-22
2023/06/10 10:21:52;;;;;;;;;;;;;;;;;;2211796;59;2760;-23
2023/06/10 10:24:23;;;;;;;;;;;;;;;;;;2211110;66;2656;-22
2023/06/10 10:26:55;;;;;;;;;;;;;;;;;;2212168;59;2490;-22
2023/06/10 10:29:38;;;;;;;;;;;;;;;;;;2211219;67;2412;-23
2023/06/10 10:32:11;;;;;;;;;;;;;;;;;;2209491;59;3553;-23
2023/06/10 10:34:51;;;;;;;;;;;;;;;;;;2210717;59;3245;-23
2023/06/10 10:37:21;;;;;;;;;;;;;;;;;;2211190;67;1921;-23
2023/06/10 10:39:52;;;;;;;;;;;;;;;;;;2210702;59;2472;-23
2023/06/10 10:42:22;;;;;;;;;;;;;;;;;;2211423;66;1999;-23
2023/06/10 10:44:53;;;;;;;;;;;;;;;;;;2210466;59;2484;-23
2023/06/10 10:47:27;;;;;;;;;;;;;;;;;;2211994;59;2127;-23
2023/06/10 10:49:59;;;;;;;;;;;;;;;;;;2211562;59;2545;-23
2023/06/10 10:52:46;;;;;;;;;;;;;;;;;;2210613;59;2227;-23
2023/06/10 10:55:16;;;;;;;;;;;;;;;;;;2208032;59;2602;-23
2023/06/10 10:58:06;;;;;;;;;;;;;;;;;;2207755;59;2087;-23
2023/06/10 11:00:37;;;;;;;;;;;;;;;;;;2211277;59;1868;-23
2023/06/10 11:03:08;;;;;;;;;;;;;;;;;;2211330;59;2653;-23
2023/06/10 11:05:44;;;;;;;;;;;;;;;;;;2211678;66;1830;-23
2023/06/10 11:08:15;;;;;;;;;;;;;;;;;;2208554;59;1552;-23
2023/06/10 11:10:54;;;;;;;;;;;;;;;;;;2211765;66;1791;-23
2023/06/10 11:13:26;;;;;;;;;;;;;;;;;;2211852;66;1576;-23
2023/06/10 11:15:57;;;;;;;;;;;;;;;;;;2211683;66;3097;-23
2023/06/10 11:18:27;;;;;;;;;;;;;;;;;;2211498;66;2290;-23
2023/06/10 11:20:58;;;;;;;;;;;;;;;;;;2211541;66;2413;-23
2023/06/10 11:23:28;;;;;;;;;;;;;;;;;;2208539;67;1831;-23
2023/06/10 11:26:17;;;;;;;;;;;;;;;;;;2211508;66;1833;-23
2023/06/10 11:28:47;;;;;;;;;;;;;;;;;;2212090;66;1875;-22
2023/06/10 11:31:21;;;;;;;;;;;;;;;;;;2211961;59;2867;-23
2023/06/10 11:33:53;;;;;;;;;;;;;;;;;;2209494;67;2004;-23
2023/06/10 11:36:24;;;;;;;;;;;;;;;;;;2212470;59;2072;-23
2023/06/10 11:38:57;;;;;;;;;;;;;;;;;;2207983;67;1765;-23
2023/06/10 11:41:28;;;;;;;;;;;;;;;;;;2211799;66;1777;-23
2023/06/10 11:44:05;;;;;;;;;;;;;;;;;;2212031;66;1822;-23
2023/06/10 11:46:35;;;;;;;;;;;;;;;;;;2212624;59;2151;-23
2023/06/10 11:49:08;;;;;;;;;;;;;;;;;;2211928;59;2553;-23
2023/06/10 11:51:40;;;;;;;;;;;;;;;;;;2211826;59;2828;-23
2023/06/10 11:54:11;;;;;;;;;;;;;;;;;;2212110;66;1726;-23
2023/06/10 11:56:41;;;;;;;;;;;;;;;;;;2212720;66;2283;-23
2023/06/10 11:59:11;;;;;;;;;;;;;;;;;;2212939;59;2003;-23
2023/06/10 12:01:43;;;;;;;;;;;;;;;;;;2212937;59;2387;-23
2023/06/10 12:04:15;;;;;;;;;;;;;;;;;;2212612;66;2426;-23
2023/06/10 12:06:48;;;;;;;;;;;;;;;;;;2213560;66;1798;-22
2023/06/10 12:09:29;;;;;;;;;;;;;;;;;;2209034;67;1854;-22
2023/06/10 12:11:59;;;;;;;;;;;;;;;;;;2211741;67;2000;-22
2023/06/10 12:14:48;;;;;;;;;;;;;;;;;;2208648;59;2926;-22
2023/06/10 12:17:22;;;;;;;;;;;;;;;;;;2211201;66;2686;-22
2023/06/10 12:19:52;;;;;;;;;;;;;;;;;;2212091;66;2754;-22
2023/06/10 12:22:26;;;;;;;;;;;;;;;;;;2211642;59;1974;-22
2023/06/10 12:25:04;;;;;;;;;;;;;;;;;;2211750;66;2077;-22
2023/06/10 12:27:35;;;;;;;;;;;;;;;;;;2212308;66;1652;-22
2023/06/10 12:30:05;;;;;;;;;;;;;;;;;;2211794;59;1836;-22
2023/06/10 12:32:35;;;;;;;;;;;;;;;;;;2208791;67;1947;-22
2023/06/10 12:35:06;;;;;;;;;;;;;;;;;;2212463;59;2243;-22
2023/06/10 12:37:37;;;;;;;;;;;;;;;;;;2212179;59;2425;-22
2023/06/10 12:40:08;;;;;;;;;;;;;;;;;;2212744;59;1638;-22
2023/06/10 12:42:38;;;;;;;;;;;;;;;;;;2214027;59;2007;-22
2023/06/10 12:45:10;;;;;;;;;;;;;;;;;;2212319;59;3229;-22
2023/06/10 12:47:44;;;;;;;;;;;;;;;;;;2212150;59;2366;-22
2023/06/10 12:50:14;;;;;;;;;;;;;;;;;;2211909;59;1970;-22
2023/06/10 12:52:47;;;;;;;;;;;;;;;;;;2212454;59;1956;-22
2023/06/10 12:55:17;;;;;;;;;;;;;;;;;;2209532;59;2925;-22
2023/06/10 12:57:50;;;;;;;;;;;;;;;;;;2212699;59;1998;-22
2023/06/10 13:00:21;;;;;;;;;;;;;;;;;;2211700;59;1957;-22
2023/06/10 13:02:51;;;;;;;;;;;;;;;;;;2211795;59;1883;-22
2023/06/10 13:05:22;;;;;;;;;;;;;;;;;;2211889;66;2353;-22
2023/06/10 13:07:52;;;;;;;;;;;;;;;;;;2209683;59;1912;-22
2023/06/10 13:10:23;;;;;;;;;;;;;;;;;;2206222;66;2600;-21
2023/06/10 13:12:54;;;;;;;;;;;;;;;;;;2208644;59;3026;-22
2023/06/10 13:15:26;;;;;;;;;;;;;;;;;;2211706;66;2170;-21
2023/06/10 13:17:56;;;;;;;;;;;;;;;;;;2209218;67;1892;-22
2023/06/10 13:20:26;;;;;;;;;;;;;;;;;;2208218;66;2133;-22
2023/06/10 13:22:57;;;;;;;;;;;;;;;;;;2208716;59;2094;-22
2023/06/10 13:25:27;;;;;;;;;;;;;;;;;;2206773;67;2110;-22
2023/06/10 13:27:57;;;;;;;;;;;;;;;;;;2211959;66;2321;-22
2023/06/10 13:30:27;;;;;;;;;;;;;;;;;;2211498;59;2027;-22
2023/06/10 13:32:58;;;;;;;;;;;;;;;;;;2211723;66;1909;-22
2023/06/10 13:35:28;;;;;;;;;;;;;;;;;;2211843;59;2086;-22
2023/06/10 13:37:58;;;;;;;;;;;;;;;;;;2211712;67;1830;-22
2023/06/10 13:40:28;;;;;;;;;;;;;;;;;;2211915;66;2807;-22
2023/06/10 13:42:59;;;;;;;;;;;;;;;;;;2211853;66;1963;-22
2023/06/10 13:45:30;;;;;;;;;;;;;;;;;;2211958;59;2557;-22
2023/06/10 13:48:04;;;;;;;;;;;;;;;;;;2212090;59;2677;-21
2023/06/10 13:50:34;;;;;;;;;;;;;;;;;;2209573;59;1822;-22
2023/06/10 13:53:04;;;;;;;;;;;;;;;;;;2211779;59;2693;-22
2023/06/10 13:55:34;;;;;;;;;;;;;;;;;;2212096;66;2005;-21
2023/06/10 13:58:05;;;;;;;;;;;;;;;;;;2211265;59;2043;-21
2023/06/10 14:00:35;;;;;;;;;;;;;;;;;;2212101;59;2163;-22
2023/06/10 14:03:05;;;;;;;;;;;;;;;;;;2210777;59;1952;-22
2023/06/10 14:05:36;;;;;;;;;;;;;;;;;;2212443;66;2000;-21
2023/06/10 14:08:06;;;;;;;;;;;;;;;;;;2211920;66;2012;-22
2023/06/10 14:10:36;;;;;;;;;;;;;;;;;;2211649;66;1909;-22
2023/06/10 14:13:06;;;;;;;;;;;;;;;;;;2211442;66;1857;-22
2023/06/10 14:15:37;;;;;;;;;;;;;;;;;;2211861;66;2181;-22
2023/06/10 14:18:07;;;;;;;;;;;;;;;;;;2208764;66;2642;-22
2023/06/10 14:20:37;;;;;;;;;;;;;;;;;;2212025;58;2379;-22
2023/06/10 14:23:07;;;;;;;;;;;;;;;;;;2211523;66;2016;-22
2023/06/10 14:25:40;;;;;;;;;;;;;;;;;;2211057;66;2145;-22
2023/06/10 14:28:11;;;;;;;;;;;;;;;;;;2211365;66;1797;-22
2023/06/10 14:30:41;;;;;;;;;;;;;;;;;;2213897;59;1898;-22
2023/06/10 14:33:11;;;;;;;;;;;;;;;;;;2212581;66;1994;-22
2023/06/10 14:35:42;;;;;;;;;;;;;;;;;;2208771;59;1988;-22
2023/06/10 14:38:13;;;;;;;;;;;;;;;;;;2208353;59;1886;-22
2023/06/10 14:40:43;;;;;;;;;;;;;;;;;;2212117;66;2513;-22
2023/06/10 14:43:16;;;;;;;;;;;;;;;;;;2211589;66;2194;-22
2023/06/10 14:45:46;;;;;;;;;;;;;;;;;;2212418;66;1765;-22
2023/06/10 14:48:20;;;;;;;;;;;;;;;;;;2211980;59;2059;-22
2023/06/10 14:50:55;;;;;;;;;;;;;;;;;;2212687;59;2658;-21
2023/06/10 14:53:25;;;;;;;;;;;;;;;;;;2208465;67;1875;-21
2023/06/10 14:55:55;;;;;;;;;;;;;;;;;;2211895;66;2545;-22
2023/06/10 14:58:25;;;;;;;;;;;;;;;;;;2211635;59;1892;-21
2023/06/10 15:00:55;;;;;;;;;;;;;;;;;;2213352;59;2445;-22
2023/06/10 15:03:26;;;;;;;;;;;;;;;;;;2210986;59;1888;-22
2023/06/10 15:05:56;;;;;;;;;;;;;;;;;;2212013;59;2797;-21
2023/06/10 15:08:27;;;;;;;;;;;;;;;;;;2212881;66;1918;-22
2023/06/10 15:10:58;;;;;;;;;;;;;;;;;;2211387;59;2369;-22
2023/06/10 15:13:28;;;;;;;;;;;;;;;;;;2211067;66;1778;-22
2023/06/10 15:15:58;;;;;;;;;;;;;;;;;;2210832;66;1937;-22
2023/06/10 15:18:29;;;;;;;;;;;;;;;;;;2212292;59;2449;-22
2023/06/10 15:20:59;;;;;;;;;;;;;;;;;;2212490;66;1783;-22
2023/06/10 15:23:30;;;;;;;;;;;;;;;;;;2208500;66;2017;-22
2023/06/10 15:26:03;;;;;;;;;;;;;;;;;;2208657;67;2272;-22
2023/06/10 15:28:33;;;;;;;;;;;;;;;;;;2213524;66;1454;-22
2023/06/10 15:31:03;;;;;;;;;;;;;;;;;;2214142;59;2903;-22
2023/06/10 15:33:34;;;;;;;;;;;;;;;;;;2212539;66;1850;-22
2023/06/10 15:36:05;;;;;;;;;;;;;;;;;;2212682;59;1948;-22
2023/06/10 15:38:35;;;;;;;;;;;;;;;;;;2212378;66;2489;-22
2023/06/10 15:41:09;;;;;;;;;;;;;;;;;;2211450;66;1887;-22
2023/06/10 15:43:40;;;;;;;;;;;;;;;;;;2207410;67;1981;-22
2023/06/10 15:46:10;;;;;;;;;;;;;;;;;;2211497;66;2321;-22
2023/06/10 15:48:40;;;;;;;;;;;;;;;;;;2212126;59;2352;-22
2023/06/10 15:51:11;;;;;;;;;;;;;;;;;;2212275;59;1748;-22
2023/06/10 15:53:45;;;;;;;;;;;;;;;;;;2211985;67;1759;-22
2023/06/10 15:56:16;;;;;;;;;;;;;;;;;;2212018;66;2359;-22
2023/06/10 15:58:46;;;;;;;;;;;;;;;;;;2209634;59;2294;-22
2023/06/10 16:01:16;;;;;;;;;;;;;;;;;;2211699;59;2549;-22
2023/06/10 16:03:47;;;;;;;;;;;;;;;;;;2212185;66;1840;-22
2023/06/10 16:06:17;;;;;;;;;;;;;;;;;;2211972;66;2535;-22
2023/06/10 16:08:47;;;;;;;;;;;;;;;;;;2212582;66;2569;-22
2023/06/10 16:11:18;;;;;;;;;;;;;;;;;;2208280;59;2253;-24
2023/06/10 16:13:48;;;;;;;;;;;;;;;;;;2212154;66;2065;-22
2023/06/10 16:16:18;;;;;;;;;;;;;;;;;;2211386;67;2652;-22
2023/06/10 16:18:48;;;;;;;;;;;;;;;;;;2212668;66;3054;-22
2023/06/10 16:21:19;;;;;;;;;;;;;;;;;;2211477;59;2919;-22
2023/06/10 16:23:49;;;;;;;;;;;;;;;;;;2211972;66;2427;-22
2023/06/10 16:26:20;;;;;;;;;;;;;;;;;;2211551;66;1735;-22
2023/06/10 16:28:51;;;;;;;;;;;;;;;;;;2212375;66;1799;-22
2023/06/10 16:31:21;;;;;;;;;;;;;;;;;;2208016;59;1853;-22
2023/06/10 16:33:51;;;;;;;;;;;;;;;;;;2212213;66;2115;-22
2023/06/10 16:36:21;;;;;;;;;;;;;;;;;;2211818;59;2734;-21
2023/06/10 16:38:54;;;;;;;;;;;;;;;;;;2209642;67;1782;-21
2023/06/10 16:41:24;;;;;;;;;;;;;;;;;;2208146;66;1691;-23
2023/06/10 16:43:54;;;;;;;;;;;;;;;;;;2211842;66;1803;-24
2023/06/10 16:46:25;;;;;;;;;;;;;;;;;;2211793;59;2581;-22
2023/06/10 16:48:55;;;;;;;;;;;;;;;;;;2211540;66;1820;-22
2023/06/10 16:51:25;;;;;;;;;;;;;;;;;;2211647;59;1931;-24
2023/06/10 16:53:55;;;;;;;;;;;;;;;;;;2212264;66;2331;-24
2023/06/10 16:56:28;;;;;;;;;;;;;;;;;;2211406;66;2000;-24
2023/06/10 16:58:59;;;;;;;;;;;;;;;;;;2210007;59;2403;-22
2023/06/10 17:01:29;;;;;;;;;;;;;;;;;;2211534;59;1923;-22
2023/06/10 17:03:59;;;;;;;;;;;;;;;;;;2213199;66;1473;-23
2023/06/10 17:06:29;;;;;;;;;;;;;;;;;;2207022;67;1810;-22
2023/06/10 17:08:59;;;;;;;;;;;;;;;;;;2212166;59;2774;-23
2023/06/10 17:11:31;;;;;;;;;;;;;;;;;;2211185;66;1982;-24
2023/06/10 17:14:01;;;;;;;;;;;;;;;;;;2212604;66;1740;-24
2023/06/10 17:16:31;;;;;;;;;;;;;;;;;;2211546;66;2023;-24
2023/06/10 17:19:02;;;;;;;;;;;;;;;;;;2211458;66;1796;-24
2023/06/10 17:21:32;;;;;;;;;;;;;;;;;;2211914;66;2537;-24
2023/06/10 17:24:02;;;;;;;;;;;;;;;;;;2211700;59;1736;-24
2023/06/10 17:26:33;;;;;;;;;;;;;;;;;;2211592;59;1655;-24
2023/06/10 17:29:03;;;;;;;;;;;;;;;;;;2211702;66;1773;-24
2023/06/10 17:31:33;;;;;;;;;;;;;;;;;;2212127;59;1913;-24